sensor_id;sensor_type;location;lat;lon;timestamp;pressure;altitude;pressure_sealevel;temperature;humidity
17593;BME280;8915;51.760;14.300;2023-01-30T00:00:48;100804.31;;;-1.77;100.00
17593;BME280;8915;51.760;14.300;2023-01-30T00:03:15;100797.53;;;-1.75;100.00
17593;BME280;8915;51.760;14.300;2023-01-30T00:05:41;100773.63;;;-1.77;100.00
17593;BME280;8915;51.760;14.300;2023-01-30T00:08:08;100785.59;;;-1.76;100.00
17593;BME280;8915;51.760;14.300;2023-01-30T00:10:34;100766.75;;;-1.78;100.00
17593;BME280;8915;51.760;14.300;2023-01-30T00:13:06;100765.91;;;-1.78;100.00
17593;BME280;8915;51.760;14.300;2023-01-30T00:15:33;100773.56;;;-1.78;100.00
17593;BME280;8915;51.760;14.300;2023-01-30T00:17:59;100770.13;;;-1.80;100.00
17593;BME280;8915;51.760;14.300;2023-01-30T00:22:53;100750.53;;;-1.80;100.00
17593;BME280;8915;51.760;14.300;2023-01-30T00:25:19;100761.63;;;-1.79;100.00
17593;BME280;8915;51.760;14.300;2023-01-30T00:27:45;100747.06;;;-1.82;100.00
17593;BME280;8915;51.760;14.300;2023-01-30T00:30:15;100742.81;;;-1.83;100.00
17593;BME280;8915;51.760;14.300;2023-01-30T00:32:41;100735.09;;;-1.84;100.00
17593;BME280;8915;51.760;14.300;2023-01-30T00:35:08;100722.25;;;-1.86;100.00
17593;BME280;8915;51.760;14.300;2023-01-30T00:37:34;100725.59;;;-1.88;100.00
17593;BME280;8915;51.760;14.300;2023-01-30T00:40:00;100730.75;;;-1.87;100.00
17593;BME280;8915;51.760;14.300;2023-01-30T00:42:51;100738.41;;;-1.87;100.00
17593;BME280;8915;51.760;14.300;2023-01-30T00:45:37;100727.38;;;-1.86;100.00
17593;BME280;8915;51.760;14.300;2023-01-30T00:48:22;100724.88;;;-1.84;100.00
17593;BME280;8915;51.760;14.300;2023-01-30T00:50:49;100710.38;;;-1.84;100.00
17593;BME280;8915;51.760;14.300;2023-01-30T00:53:15;100705.31;;;-1.82;100.00
17593;BME280;8915;51.760;14.300;2023-01-30T00:55:42;100704.47;;;-1.83;100.00
17593;BME280;8915;51.760;14.300;2023-01-30T00:58:10;100686.56;;;-1.83;100.00
17593;BME280;8915;51.760;14.300;2023-01-30T01:00:38;100680.63;;;-1.82;100.00
17593;BME280;8915;51.760;14.300;2023-01-30T01:03:06;100685.75;;;-1.80;100.00
17593;BME280;8915;51.760;14.300;2023-01-30T01:05:33;100686.63;;;-1.80;100.00
17593;BME280;8915;51.760;14.300;2023-01-30T01:07:59;100671.31;;;-1.78;100.00
17593;BME280;8915;51.760;14.300;2023-01-30T01:10:27;100651.72;;;-1.79;100.00
17593;BME280;8915;51.760;14.300;2023-01-30T01:12:54;100649.16;;;-1.79;100.00
17593;BME280;8915;51.760;14.300;2023-01-30T01:15:22;100653.44;;;-1.78;100.00
17593;BME280;8915;51.760;14.300;2023-01-30T01:17:50;100646.63;;;-1.78;100.00
17593;BME280;8915;51.760;14.300;2023-01-30T01:20:17;100630.44;;;-1.78;100.00
17593;BME280;8915;51.760;14.300;2023-01-30T01:22:45;100624.50;;;-1.77;100.00
17593;BME280;8915;51.760;14.300;2023-01-30T01:25:15;100613.38;;;-1.78;100.00
17593;BME280;8915;51.760;14.300;2023-01-30T01:27:43;100615.97;;;-1.76;100.00
17593;BME280;8915;51.760;14.300;2023-01-30T01:30:12;100607.47;;;-1.77;100.00
17593;BME280;8915;51.760;14.300;2023-01-30T01:32:38;100605.72;;;-1.78;100.00
17593;BME280;8915;51.760;14.300;2023-01-30T01:35:10;100595.53;;;-1.76;100.00
17593;BME280;8915;51.760;14.300;2023-01-30T01:37:37;100584.44;;;-1.77;100.00
17593;BME280;8915;51.760;14.300;2023-01-30T01:40:05;100571.66;;;-1.77;100.00
17593;BME280;8915;51.760;14.300;2023-01-30T01:42:49;100565.75;;;-1.76;100.00
17593;BME280;8915;51.760;14.300;2023-01-30T01:45:17;100559.69;;;-1.78;100.00
17593;BME280;8915;51.760;14.300;2023-01-30T01:47:52;100540.97;;;-1.78;100.00
17593;BME280;8915;51.760;14.300;2023-01-30T01:50:27;100529.03;;;-1.78;100.00
17593;BME280;8915;51.760;14.300;2023-01-30T01:52:56;100528.09;;;-1.81;100.00
17593;BME280;8915;51.760;14.300;2023-01-30T01:55:25;100511.91;;;-1.82;100.00
17593;BME280;8915;51.760;14.300;2023-01-30T01:57:54;100492.31;;;-1.83;100.00
17593;BME280;8915;51.760;14.300;2023-01-30T02:00:22;100499.97;;;-1.83;100.00
17593;BME280;8915;51.760;14.300;2023-01-30T02:02:53;100511.00;;;-1.84;100.00
17593;BME280;8915;51.760;14.300;2023-01-30T02:05:21;100507.66;;;-1.81;100.00
17593;BME280;8915;51.760;14.300;2023-01-30T02:07:53;100500.03;;;-1.80;100.00
17593;BME280;8915;51.760;14.300;2023-01-30T02:10:28;100471.13;;;-1.77;100.00
17593;BME280;8915;51.760;14.300;2023-01-30T02:12:56;100483.09;;;-1.75;100.00
17593;BME280;8915;51.760;14.300;2023-01-30T02:15:23;100465.19;;;-1.75;100.00
17593;BME280;8915;51.760;14.300;2023-01-30T02:17:49;100454.97;;;-1.75;100.00
17593;BME280;8915;51.760;14.300;2023-01-30T02:20:24;100461.81;;;-1.74;100.00
17593;BME280;8915;51.760;14.300;2023-01-30T02:23:10;100460.97;;;-1.73;100.00
17593;BME280;8915;51.760;14.300;2023-01-30T02:26:07;100458.50;;;-1.69;100.00
17593;BME280;8915;51.760;14.300;2023-01-30T02:28:54;100483.25;;;-1.68;100.00
17593;BME280;8915;51.760;14.300;2023-01-30T02:31:37;100491.75;;;-1.68;100.00
17593;BME280;8915;51.760;14.300;2023-01-30T02:34:20;100479.03;;;-1.66;100.00
17593;BME280;8915;51.760;14.300;2023-01-30T02:36:53;100473.06;;;-1.65;100.00
17593;BME280;8915;51.760;14.300;2023-01-30T02:39:31;100467.13;;;-1.64;100.00
17593;BME280;8915;51.760;14.300;2023-01-30T02:42:10;100453.53;;;-1.63;100.00
17593;BME280;8915;51.760;14.300;2023-01-30T02:44:44;100447.56;;;-1.62;100.00
17593;BME280;8915;51.760;14.300;2023-01-30T02:47:21;100447.59;;;-1.61;100.00
17593;BME280;8915;51.760;14.300;2023-01-30T02:49:53;100426.31;;;-1.60;100.00
17593;BME280;8915;51.760;14.300;2023-01-30T02:52:21;100427.22;;;-1.58;100.00
17593;BME280;8915;51.760;14.300;2023-01-30T02:54:48;100413.56;;;-1.58;100.00
17593;BME280;8915;51.760;14.300;2023-01-30T02:57:17;100399.13;;;-1.56;100.00
17593;BME280;8915;51.760;14.300;2023-01-30T02:59:52;100390.56;;;-1.57;100.00
17593;BME280;8915;51.760;14.300;2023-01-30T03:02:40;100373.56;;;-1.55;100.00
17593;BME280;8915;51.760;14.300;2023-01-30T03:05:38;100357.44;;;-1.50;100.00
17593;BME280;8915;51.760;14.300;2023-01-30T03:08:17;100350.66;;;-1.48;100.00
17593;BME280;8915;51.760;14.300;2023-01-30T03:10:52;100333.63;;;-1.48;100.00
17593;BME280;8915;51.760;14.300;2023-01-30T03:13:28;100326.84;;;-1.46;100.00
17593;BME280;8915;51.760;14.300;2023-01-30T03:16:04;100325.16;;;-1.45;100.00
17593;BME280;8915;51.760;14.300;2023-01-30T03:18:33;100330.28;;;-1.45;100.00
17593;BME280;8915;51.760;14.300;2023-01-30T03:21:03;100315.81;;;-1.43;100.00
17593;BME280;8915;51.760;14.300;2023-01-30T03:23:30;100300.56;;;-1.39;100.00
17593;BME280;8915;51.760;14.300;2023-01-30T03:25:57;100316.75;;;-1.38;100.00
17593;BME280;8915;51.760;14.300;2023-01-30T03:28:24;100297.13;;;-1.39;100.00
17593;BME280;8915;51.760;14.300;2023-01-30T03:30:52;100286.06;;;-1.38;100.00
17593;BME280;8915;51.760;14.300;2023-01-30T03:33:18;100285.25;;;-1.37;100.00
17593;BME280;8915;51.760;14.300;2023-01-30T03:35:49;100304.84;;;-1.36;100.00
17593;BME280;8915;51.760;14.300;2023-01-30T03:38:16;100292.16;;;-1.31;100.00
17593;BME280;8915;51.760;14.300;2023-01-30T03:40:44;100280.22;;;-1.31;100.00
17593;BME280;8915;51.760;14.300;2023-01-30T03:43:11;100267.44;;;-1.29;100.00
17593;BME280;8915;51.760;14.300;2023-01-30T03:45:37;100287.09;;;-1.28;100.00
17593;BME280;8915;51.760;14.300;2023-01-30T03:48:04;100287.97;;;-1.26;100.00
17593;BME280;8915;51.760;14.300;2023-01-30T03:50:31;100281.22;;;-1.23;100.00
17593;BME280;8915;51.760;14.300;2023-01-30T03:53:00;100269.25;;;-1.22;100.00
17593;BME280;8915;51.760;14.300;2023-01-30T03:55:28;100251.41;;;-1.19;100.00
17593;BME280;8915;51.760;14.300;2023-01-30T03:57:55;100255.66;;;-1.21;100.00
17593;BME280;8915;51.760;14.300;2023-01-30T04:00:23;100246.19;;;-1.25;100.00
17593;BME280;8915;51.760;14.300;2023-01-30T04:02:49;100264.88;;;-1.29;100.00
17593;BME280;8915;51.760;14.300;2023-01-30T04:05:16;100239.25;;;-1.33;100.00
17593;BME280;8915;51.760;14.300;2023-01-30T04:07:48;100239.28;;;-1.31;100.00
17593;BME280;8915;51.760;14.300;2023-01-30T04:10:17;100247.78;;;-1.32;100.00
17593;BME280;8915;51.760;14.300;2023-01-30T04:12:44;100245.22;;;-1.32;100.00
17593;BME280;8915;51.760;14.300;2023-01-30T04:15:11;100235.88;;;-1.31;100.00
17593;BME280;8915;51.760;14.300;2023-01-30T04:17:47;100239.28;;;-1.31;100.00
17593;BME280;8915;51.760;14.300;2023-01-30T04:20:40;100223.06;;;-1.33;100.00
17593;BME280;8915;51.760;14.300;2023-01-30T04:23:06;100223.91;;;-1.33;100.00
17593;BME280;8915;51.760;14.300;2023-01-30T04:25:34;100211.97;;;-1.34;100.00
17593;BME280;8915;51.760;14.300;2023-01-30T04:28:05;100221.28;;;-1.37;100.00
17593;BME280;8915;51.760;14.300;2023-01-30T04:30:35;100204.25;;;-1.37;100.00
17593;BME280;8915;51.760;14.300;2023-01-30T04:33:30;100190.59;;;-1.37;100.00
17593;BME280;8915;51.760;14.300;2023-01-30T04:36:02;100184.56;;;-1.39;100.00
17593;BME280;8915;51.760;14.300;2023-01-30T04:38:30;100180.31;;;-1.40;100.00
17593;BME280;8915;51.760;14.300;2023-01-30T04:40:59;100177.75;;;-1.40;100.00
17593;BME280;8915;51.760;14.300;2023-01-30T04:43:28;100176.09;;;-1.38;100.00
17593;BME280;8915;51.760;14.300;2023-01-30T04:46:17;100174.44;;;-1.35;100.00
17593;BME280;8915;51.760;14.300;2023-01-30T04:48:44;100157.38;;;-1.34;100.00
17593;BME280;8915;51.760;14.300;2023-01-30T04:51:10;100159.97;;;-1.31;100.00
17593;BME280;8915;51.760;14.300;2023-01-30T04:53:37;100144.69;;;-1.28;100.00
17593;BME280;8915;51.760;14.300;2023-01-30T04:56:06;100146.47;;;-1.22;100.00
17593;BME280;8915;51.760;14.300;2023-01-30T04:58:33;100137.97;;;-1.20;100.00
17593;BME280;8915;51.760;14.300;2023-01-30T05:01:11;100122.66;;;-1.17;100.00
17593;BME280;8915;51.760;14.300;2023-01-30T05:03:39;100120.19;;;-1.10;100.00
17593;BME280;8915;51.760;14.300;2023-01-30T05:06:05;100116.84;;;-1.06;100.00
17593;BME280;8915;51.760;14.300;2023-01-30T05:08:32;100117.69;;;-1.04;100.00
17593;BME280;8915;51.760;14.300;2023-01-30T05:10:59;100124.59;;;-1.00;100.00
17593;BME280;8915;51.760;14.300;2023-01-30T05:13:28;100116.94;;;-0.97;100.00
17593;BME280;8915;51.760;14.300;2023-01-30T05:15:54;100117.88;;;-0.92;100.00
17593;BME280;8915;51.760;14.300;2023-01-30T05:18:20;100103.41;;;-0.88;100.00
17593;BME280;8915;51.760;14.300;2023-01-30T05:20:47;100110.31;;;-0.81;100.00
17593;BME280;8915;51.760;14.300;2023-01-30T05:23:13;100092.38;;;-0.81;100.00
17593;BME280;8915;51.760;14.300;2023-01-30T05:25:39;100083.00;;;-0.82;100.00
17593;BME280;8915;51.760;14.300;2023-01-30T05:28:06;100084.72;;;-0.80;100.00
17593;BME280;8915;51.760;14.300;2023-01-30T05:30:34;100079.63;;;-0.78;100.00
17593;BME280;8915;51.760;14.300;2023-01-30T05:33:00;100078.81;;;-0.77;100.00
17593;BME280;8915;51.760;14.300;2023-01-30T05:35:28;100068.56;;;-0.74;100.00
17593;BME280;8915;51.760;14.300;2023-01-30T05:37:54;100077.13;;;-0.73;100.00
17593;BME280;8915;51.760;14.300;2023-01-30T05:40:21;100072.88;;;-0.71;100.00
17593;BME280;8915;51.760;14.300;2023-01-30T05:42:47;100062.69;;;-0.68;100.00
17593;BME280;8915;51.760;14.300;2023-01-30T05:45:13;100056.69;;;-0.67;100.00
17593;BME280;8915;51.760;14.300;2023-01-30T05:47:41;100043.06;;;-0.66;100.00
17593;BME280;8915;51.760;14.300;2023-01-30T05:50:09;100049.06;;;-0.64;100.00
17593;BME280;8915;51.760;14.300;2023-01-30T05:52:35;100040.53;;;-0.65;100.00
17593;BME280;8915;51.760;14.300;2023-01-30T05:55:02;100042.25;;;-0.62;100.00
17593;BME280;8915;51.760;14.300;2023-01-30T05:57:28;100026.06;;;-0.61;100.00
17593;BME280;8915;51.760;14.300;2023-01-30T05:59:55;100029.47;;;-0.59;100.00
17593;BME280;8915;51.760;14.300;2023-01-30T06:02:21;100031.19;;;-0.57;100.00
17593;BME280;8915;51.760;14.300;2023-01-30T06:04:49;100033.81;;;-0.53;100.00
17593;BME280;8915;51.760;14.300;2023-01-30T06:07:15;100036.34;;;-0.53;100.00
17593;BME280;8915;51.760;14.300;2023-01-30T06:09:41;100040.66;;;-0.51;100.00
17593;BME280;8915;51.760;14.300;2023-01-30T06:12:08;100035.53;;;-0.51;100.00
17593;BME280;8915;51.760;14.300;2023-01-30T06:14:34;100030.44;;;-0.51;100.00
17593;BME280;8915;51.760;14.300;2023-01-30T06:17:01;100033.00;;;-0.48;100.00
17593;BME280;8915;51.760;14.300;2023-01-30T06:19:27;100035.56;;;-0.46;100.00
17593;BME280;8915;51.760;14.300;2023-01-30T06:21:55;100030.47;;;-0.45;100.00
17593;BME280;8915;51.760;14.300;2023-01-30T06:24:21;100027.91;;;-0.45;100.00
17593;BME280;8915;51.760;14.300;2023-01-30T06:26:48;100018.50;;;-0.44;100.00
17593;BME280;8915;51.760;14.300;2023-01-30T06:29:15;100016.81;;;-0.45;100.00
17593;BME280;8915;51.760;14.300;2023-01-30T06:31:41;100020.22;;;-0.45;100.00
17593;BME280;8915;51.760;14.300;2023-01-30T06:34:09;100017.63;;;-0.46;100.00
17593;BME280;8915;51.760;14.300;2023-01-30T06:36:36;100013.38;;;-0.47;100.00
17593;BME280;8915;51.760;14.300;2023-01-30T06:39:03;100013.38;;;-0.47;100.00
17593;BME280;8915;51.760;14.300;2023-01-30T06:41:31;100009.94;;;-0.48;100.00
17593;BME280;8915;51.760;14.300;2023-01-30T06:43:58;100005.69;;;-0.47;100.00
17593;BME280;8915;51.760;14.300;2023-01-30T06:46:24;100016.78;;;-0.47;100.00
17593;BME280;8915;51.760;14.300;2023-01-30T06:48:50;99991.19;;;-0.47;100.00
17593;BME280;8915;51.760;14.300;2023-01-30T06:51:17;100012.50;;;-0.46;100.00
17593;BME280;8915;51.760;14.300;2023-01-30T06:53:43;100017.63;;;-0.46;100.00
17593;BME280;8915;51.760;14.300;2023-01-30T06:56:11;99997.16;;;-0.45;100.00
17593;BME280;8915;51.760;14.300;2023-01-30T06:58:37;100005.72;;;-0.43;100.00
17593;BME280;8915;51.760;14.300;2023-01-30T07:01:03;100008.28;;;-0.43;100.00
17593;BME280;8915;51.760;14.300;2023-01-30T07:03:30;100009.97;;;-0.45;100.00
17593;BME280;8915;51.760;14.300;2023-01-30T07:05:56;99999.72;;;-0.46;100.00
17593;BME280;8915;51.760;14.300;2023-01-30T07:08:23;99984.31;;;-0.49;100.00
17593;BME280;8915;51.760;14.300;2023-01-30T07:10:49;99982.63;;;-0.50;100.00
17593;BME280;8915;51.760;14.300;2023-01-30T07:13:17;99988.59;;;-0.50;100.00
17593;BME280;8915;51.760;14.300;2023-01-30T07:15:43;99991.16;;;-0.48;100.00
17593;BME280;8915;51.760;14.300;2023-01-30T07:18:10;99976.66;;;-0.48;100.00
17593;BME280;8915;51.760;14.300;2023-01-30T07:20:37;99976.63;;;-0.51;100.00
17593;BME280;8915;51.760;14.300;2023-01-30T07:23:04;99992.88;;;-0.47;100.00
17593;BME280;8915;51.760;14.300;2023-01-30T07:25:30;99992.03;;;-0.46;100.00
17593;BME280;8915;51.760;14.300;2023-01-30T07:27:58;99987.78;;;-0.44;100.00
17593;BME280;8915;51.760;14.300;2023-01-30T07:30:27;99979.25;;;-0.45;100.00
17593;BME280;8915;51.760;14.300;2023-01-30T07:32:55;99979.25;;;-0.45;100.00
17593;BME280;8915;51.760;14.300;2023-01-30T07:35:23;99974.13;;;-0.43;100.00
17593;BME280;8915;51.760;14.300;2023-01-30T07:37:50;99974.16;;;-0.42;100.00
17593;BME280;8915;51.760;14.300;2023-01-30T07:40:18;99978.41;;;-0.42;100.00
17593;BME280;8915;51.760;14.300;2023-01-30T07:42:54;99976.72;;;-0.42;100.00
17593;BME280;8915;51.760;14.300;2023-01-30T07:45:20;99976.72;;;-0.42;100.00
17593;BME280;8915;51.760;14.300;2023-01-30T07:47:48;99978.41;;;-0.42;100.00
17593;BME280;8915;51.760;14.300;2023-01-30T07:50:15;99973.28;;;-0.44;100.00
17593;BME280;8915;51.760;14.300;2023-01-30T07:52:42;99975.84;;;-0.45;100.00
17593;BME280;8915;51.760;14.300;2023-01-30T07:55:08;99980.91;;;-0.48;100.00
17593;BME280;8915;51.760;14.300;2023-01-30T07:57:35;99978.31;;;-0.51;100.00
17593;BME280;8915;51.760;14.300;2023-01-30T08:00:02;99969.78;;;-0.52;100.00
17593;BME280;8915;51.760;14.300;2023-01-30T08:02:34;99988.56;;;-0.53;100.00
17593;BME280;8915;51.760;14.300;2023-01-30T08:05:01;99970.63;;;-0.51;100.00
17593;BME280;8915;51.760;14.300;2023-01-30T08:07:28;99961.25;;;-0.52;100.00
17593;BME280;8915;51.760;14.300;2023-01-30T08:09:54;99959.56;;;-0.50;100.00
17593;BME280;8915;51.760;14.300;2023-01-30T08:12:20;99957.88;;;-0.47;100.00
17593;BME280;8915;51.760;14.300;2023-01-30T08:14:47;99962.16;;;-0.44;100.00
17593;BME280;8915;51.760;14.300;2023-01-30T08:17:13;99946.84;;;-0.40;100.00
17593;BME280;8915;51.760;14.300;2023-01-30T08:19:41;99960.53;;;-0.36;100.00
17593;BME280;8915;51.760;14.300;2023-01-30T08:22:08;99966.50;;;-0.35;100.00
17593;BME280;8915;51.760;14.300;2023-01-30T08:24:36;99965.69;;;-0.33;100.00
17593;BME280;8915;51.760;14.300;2023-01-30T08:27:02;99956.31;;;-0.29;100.00
17593;BME280;8915;51.760;14.300;2023-01-30T08:29:29;99952.91;;;-0.27;100.00
17593;BME280;8915;51.760;14.300;2023-01-30T08:31:56;99971.72;;;-0.23;100.00
17593;BME280;8915;51.760;14.300;2023-01-30T08:34:22;99957.25;;;-0.21;100.00
17593;BME280;8915;51.760;14.300;2023-01-30T08:36:49;99964.09;;;-0.15;100.00
17593;BME280;8915;51.760;14.300;2023-01-30T08:39:16;99954.72;;;-0.12;100.00
17593;BME280;8915;51.760;14.300;2023-01-30T08:41:43;99936.81;;;-0.04;100.00
17593;BME280;8915;51.760;14.300;2023-01-30T08:44:09;99945.41;;;0.03;100.00
17593;BME280;8915;51.760;14.300;2023-01-30T08:46:36;99942.03;;;0.10;100.00
17593;BME280;8915;51.760;14.300;2023-01-30T08:49:03;99939.50;;;0.13;100.00
17593;BME280;8915;51.760;14.300;2023-01-30T08:51:30;99940.38;;;0.18;100.00
17593;BME280;8915;51.760;14.300;2023-01-30T08:53:56;99914.75;;;0.24;100.00
17593;BME280;8915;51.760;14.300;2023-01-30T08:56:24;99910.50;;;0.28;100.00
17593;BME280;8915;51.760;14.300;2023-01-30T08:58:50;99922.47;;;0.33;100.00
17593;BME280;8915;51.760;14.300;2023-01-30T09:01:17;99918.25;;;0.37;100.00
17593;BME280;8915;51.760;14.300;2023-01-30T09:03:43;99910.56;;;0.43;100.00
17593;BME280;8915;51.760;14.300;2023-01-30T09:06:09;99918.28;;;0.54;100.00
17593;BME280;8915;51.760;14.300;2023-01-30T09:08:36;99915.75;;;0.63;100.00
17593;BME280;8915;51.760;14.300;2023-01-30T09:11:03;99907.25;;;0.80;100.00
17593;BME280;8915;51.760;14.300;2023-01-30T09:13:33;99904.72;;;0.89;100.00
17593;BME280;8915;51.760;14.300;2023-01-30T09:15:59;99897.88;;;0.92;100.00
17593;BME280;8915;51.760;14.300;2023-01-30T09:18:26;99900.44;;;1.02;100.00
17593;BME280;8915;51.760;14.300;2023-01-30T09:21:01;99901.31;;;1.10;100.00
17593;BME280;8915;51.760;14.300;2023-01-30T09:23:27;99905.59;;;1.17;100.00
17593;BME280;8915;51.760;14.300;2023-01-30T09:25:54;99905.59;;;1.20;100.00
17593;BME280;8915;51.760;14.300;2023-01-30T09:28:20;99911.59;;;1.24;100.00
17593;BME280;8915;51.760;14.300;2023-01-30T09:30:48;99899.59;;;1.38;100.00
17593;BME280;8915;51.760;14.300;2023-01-30T09:33:14;99903.03;;;1.57;100.00
17593;BME280;8915;51.760;14.300;2023-01-30T09:35:45;99899.59;;;1.69;100.00
17593;BME280;8915;51.760;14.300;2023-01-30T09:38:12;99892.69;;;1.74;100.00
17593;BME280;8915;51.760;14.300;2023-01-30T09:40:42;99894.44;;;1.63;100.00
17593;BME280;8915;51.760;14.300;2023-01-30T09:43:22;99898.72;;;1.56;100.00
17593;BME280;8915;51.760;14.300;2023-01-30T09:46:05;99902.19;;;1.55;100.00
17593;BME280;8915;51.760;14.300;2023-01-30T09:48:35;99905.59;;;1.56;100.00
17593;BME280;8915;51.760;14.300;2023-01-30T09:51:25;99885.03;;;1.54;100.00
17593;BME280;8915;51.760;14.300;2023-01-30T09:54:02;99892.75;;;1.56;100.00
17593;BME280;8915;51.760;14.300;2023-01-30T09:56:31;99897.91;;;1.60;100.00
17593;BME280;8915;51.760;14.300;2023-01-30T09:58:58;99906.44;;;1.73;100.00
17593;BME280;8915;51.760;14.300;2023-01-30T10:01:35;99899.53;;;1.83;100.00
17593;BME280;8915;51.760;14.300;2023-01-30T10:04:11;99897.84;;;1.85;100.00
17593;BME280;8915;51.760;14.300;2023-01-30T10:06:46;99897.84;;;1.83;100.00
17593;BME280;8915;51.760;14.300;2023-01-30T10:09:21;99910.69;;;1.79;100.00
17593;BME280;8915;51.760;14.300;2023-01-30T10:12:02;99903.84;;;1.79;100.00
17593;BME280;8915;51.760;14.300;2023-01-30T10:14:41;99905.56;;;1.77;100.00
17593;BME280;8915;51.760;14.300;2023-01-30T10:17:26;99906.44;;;1.75;100.00
17593;BME280;8915;51.760;14.300;2023-01-30T10:20:15;99908.13;;;1.74;100.00
17593;BME280;8915;51.760;14.300;2023-01-30T10:22:57;99906.44;;;1.73;100.00
17593;BME280;8915;51.760;14.300;2023-01-30T10:25:29;99910.69;;;1.74;100.00
17593;BME280;8915;51.760;14.300;2023-01-30T10:28:00;99900.41;;;1.76;100.00
17593;BME280;8915;51.760;14.300;2023-01-30T10:30:29;99921.84;;;1.76;100.00
17593;BME280;8915;51.760;14.300;2023-01-30T10:32:59;99928.69;;;1.77;100.00
17593;BME280;8915;51.760;14.300;2023-01-30T10:35:31;99925.28;;;1.77;100.00
17593;BME280;8915;51.760;14.300;2023-01-30T10:38:05;99929.56;;;1.67;100.00
17593;BME280;8915;51.760;14.300;2023-01-30T10:40:37;99931.28;;;1.57;100.00
17593;BME280;8915;51.760;14.300;2023-01-30T10:43:12;99909.03;;;1.50;100.00
17593;BME280;8915;51.760;14.300;2023-01-30T10:45:48;99918.44;;;1.49;100.00
17593;BME280;8915;51.760;14.300;2023-01-30T10:48:28;99909.03;;;1.47;100.00
17593;BME280;8915;51.760;14.300;2023-01-30T10:50:58;99919.31;;;1.45;100.00
17593;BME280;8915;51.760;14.300;2023-01-30T10:53:34;99918.44;;;1.42;100.00
17593;BME280;8915;51.760;14.300;2023-01-30T10:56:04;99921.88;;;1.41;100.00
17593;BME280;8915;51.760;14.300;2023-01-30T10:58:40;99909.03;;;1.39;100.00
17593;BME280;8915;51.760;14.300;2023-01-30T11:01:15;99903.03;;;1.45;100.00
17593;BME280;8915;51.760;14.300;2023-01-30T11:03:49;99898.72;;;1.55;100.00
17593;BME280;8915;51.760;14.300;2023-01-30T11:06:21;99885.88;;;1.73;100.00
17593;BME280;8915;51.760;14.300;2023-01-30T11:08:49;99889.28;;;1.80;100.00
17593;BME280;8915;51.760;14.300;2023-01-30T11:11:23;99893.56;;;1.81;100.00
17593;BME280;8915;51.760;14.300;2023-01-30T11:14:00;99888.41;;;1.79;100.00
17593;BME280;8915;51.760;14.300;2023-01-30T11:16:26;99893.56;;;1.81;100.00
17593;BME280;8915;51.760;14.300;2023-01-30T11:18:54;99896.97;;;1.86;100.00
17593;BME280;8915;51.760;14.300;2023-01-30T11:21:25;99888.41;;;1.90;100.00
17593;BME280;8915;51.760;14.300;2023-01-30T11:23:53;99877.25;;;1.93;100.00
17593;BME280;8915;51.760;14.300;2023-01-30T11:26:24;99881.50;;;1.97;100.00
17593;BME280;8915;51.760;14.300;2023-01-30T11:28:54;99872.06;;;2.02;100.00
17593;BME280;8915;51.760;14.300;2023-01-30T11:31:23;99878.06;;;2.04;100.00
17593;BME280;8915;51.760;14.300;2023-01-30T11:34:00;99883.25;;;2.01;100.00
17593;BME280;8915;51.760;14.300;2023-01-30T11:36:28;99884.13;;;1.94;100.00
17593;BME280;8915;51.760;14.300;2023-01-30T11:38:57;99870.41;;;1.84;100.00
17593;BME280;8915;51.760;14.300;2023-01-30T11:41:24;99861.00;;;1.81;100.00
17593;BME280;8915;51.760;14.300;2023-01-30T11:43:58;99849.84;;;1.81;100.00
17593;BME280;8915;51.760;14.300;2023-01-30T11:46:30;99850.72;;;1.81;100.00
17593;BME280;8915;51.760;14.300;2023-01-30T11:49:01;99848.13;;;1.89;100.00
17593;BME280;8915;51.760;14.300;2023-01-30T11:51:28;99846.31;;;2.14;100.00
17593;BME280;8915;51.760;14.300;2023-01-30T11:53:56;99831.66;;;2.32;100.00
17593;BME280;8915;51.760;14.300;2023-01-30T11:56:30;99826.50;;;2.35;100.00
17593;BME280;8915;51.760;14.300;2023-01-30T11:59:01;99818.72;;;2.44;100.00
17593;BME280;8915;51.760;14.300;2023-01-30T12:01:30;99815.25;;;2.50;100.00
17593;BME280;8915;51.760;14.300;2023-01-30T12:03:57;99804.13;;;2.49;100.00
17593;BME280;8915;51.760;14.300;2023-01-30T12:06:29;99806.69;;;2.46;100.00
17593;BME280;8915;51.760;14.300;2023-01-30T12:08:57;99796.38;;;2.54;100.00
17593;BME280;8915;51.760;14.300;2023-01-30T12:11:39;99796.31;;;2.61;100.00
17593;BME280;8915;51.760;14.300;2023-01-30T12:14:15;99794.56;;;2.67;100.00
17593;BME280;8915;51.760;14.300;2023-01-30T12:16:54;99795.41;;;2.72;100.00
17593;BME280;8915;51.760;14.300;2023-01-30T12:19:32;99794.50;;;2.77;100.00
17593;BME280;8915;51.760;14.300;2023-01-30T12:22:14;99789.34;;;2.74;100.00
17593;BME280;8915;51.760;14.300;2023-01-30T12:24:45;99790.22;;;2.76;100.00
17593;BME280;8915;51.760;14.300;2023-01-30T12:27:18;99799.63;;;2.79;100.00
17593;BME280;8915;51.760;14.300;2023-01-30T12:29:55;99787.59;;;2.82;100.00
17593;BME280;8915;51.760;14.300;2023-01-30T12:32:26;99797.78;;;2.96;100.00
17593;BME280;8915;51.760;14.300;2023-01-30T12:34:52;99784.69;;;3.18;100.00
17593;BME280;8915;51.760;14.300;2023-01-30T12:37:31;99780.19;;;3.43;100.00
17593;BME280;8915;51.760;14.300;2023-01-30T12:40:07;99784.31;;;3.56;100.00
17593;BME280;8915;51.760;14.300;2023-01-30T12:42:57;99777.38;;;3.63;100.00
17593;BME280;8915;51.760;14.300;2023-01-30T12:45:28;99778.31;;;3.56;100.00
17593;BME280;8915;51.760;14.300;2023-01-30T12:48:28;99763.72;;;3.53;100.00
17593;BME280;8915;51.760;14.300;2023-01-30T12:51:05;99760.31;;;3.51;100.00
17593;BME280;8915;51.760;14.300;2023-01-30T12:53:45;99769.88;;;3.41;100.00
17593;BME280;8915;51.760;14.300;2023-01-30T12:56:33;99774.16;;;3.41;100.00
17593;BME280;8915;51.760;14.300;2023-01-30T12:59:06;99780.06;;;3.54;100.00
17593;BME280;8915;51.760;14.300;2023-01-30T13:01:43;99771.50;;;3.50;100.00
17593;BME280;8915;51.760;14.300;2023-01-30T13:04:20;99773.31;;;3.40;100.00
17593;BME280;8915;51.760;14.300;2023-01-30T13:07:07;99772.56;;;3.31;100.00